Time;durP1;ratioP1;P1;durP2;ratioP2;P2;SDS_P1;SDS_P2;PMS_P1;PMS_P2;Temp;Humidity;BMP_temperature;BMP_pressure;BME280_temperature;BME280_humidity;BME280_pressure;Samples;Min_cycle;Max_cycle;Signal;HPM_P1;HPM_P2
2022/10/31 00:02:10;;;;;;;5.00;2.33;;;24.90;57.50;;;;;;5010351;28;20096;-65
2022/10/31 00:04:36;;;;;;;5.30;2.38;;;24.80;57.50;;;;;;5019006;28;20536;-64
2022/10/31 00:07:01;;;;;;;3.72;2.50;;;24.80;57.50;;;;;;5018138;28;20037;-64
2022/10/31 00:09:27;;;;;;;4.57;2.20;;;24.80;57.50;;;;;;5013177;28;20037;-65
2022/10/31 00:11:52;;;;;;;3.55;2.40;;;24.80;57.50;;;;;;5012909;28;20417;-66
2022/10/31 00:14:18;;;;;;;3.90;2.08;;;24.80;57.60;;;;;;5011724;28;20022;-63
2022/10/31 00:16:43;;;;;;;4.18;2.17;;;24.80;57.60;;;;;;5015469;28;20036;-65
2022/10/31 00:19:09;;;;;;;3.28;1.92;;;24.80;57.60;;;;;;5017524;28;20592;-65
2022/10/31 00:21:35;;;;;;;3.50;2.13;;;24.70;57.60;;;;;;5011750;28;20026;-67
2022/10/31 00:24:01;;;;;;;3.13;2.10;;;24.70;57.70;;;;;;5017322;28;20361;-65
2022/10/31 00:26:31;;;;;;;3.28;1.80;;;24.60;57.60;;;;;;5020514;28;20039;-65
2022/10/31 00:28:58;;;;;;;4.32;2.20;;;24.70;57.70;;;;;;5013221;28;20469;-63
2022/10/31 00:31:24;;;;;;;3.55;2.00;;;24.60;57.70;;;;;;5012085;28;20030;-64
2022/10/31 00:33:49;;;;;;;4.40;2.20;;;24.60;57.70;;;;;;5015266;28;20503;-64
2022/10/31 00:36:17;;;;;;;3.08;1.95;;;24.50;57.70;;;;;;5017885;28;20029;-66
2022/10/31 00:38:44;;;;;;;3.85;1.98;;;24.60;57.80;;;;;;5014411;28;20389;-64
2022/10/31 00:41:11;;;;;;;3.05;1.67;;;24.50;57.70;;;;;;5011402;28;20034;-64
2022/10/31 00:43:36;;;;;;;2.97;1.83;;;24.50;57.80;;;;;;5006939;28;20030;-64
2022/10/31 00:46:02;;;;;;;4.07;1.92;;;24.50;57.80;;;;;;5017100;28;20540;-64
2022/10/31 00:48:28;;;;;;;3.95;2.20;;;24.50;57.80;;;;;;5005953;28;20406;-63
2022/10/31 00:50:54;;;;;;;3.42;2.20;;;24.50;57.90;;;;;;5011996;28;20022;-65
2022/10/31 00:53:20;;;;;;;3.22;1.98;;;24.40;57.80;;;;;;5013477;28;20059;-64
2022/10/31 00:55:46;;;;;;;2.95;1.80;;;24.40;57.90;;;;;;5019018;28;20440;-64
2022/10/31 00:58:11;;;;;;;3.40;1.85;;;24.40;57.90;;;;;;5013740;28;20424;-63
2022/10/31 01:00:37;;;;;;;4.00;1.80;;;24.40;58.40;;;;;;5011421;28;20417;-64
2022/10/31 01:03:02;;;;;;;4.22;1.95;;;24.40;57.90;;;;;;5022191;28;20080;-64
2022/10/31 01:05:28;;;;;;;4.43;2.10;;;24.40;58.00;;;;;;5017944;28;20026;-66
2022/10/31 01:07:54;;;;;;;2.70;1.60;;;24.30;58.00;;;;;;5015396;28;20033;-66
2022/10/31 01:10:19;;;;;;;4.10;2.00;;;24.30;58.00;;;;;;5014321;28;20040;-64
2022/10/31 01:12:47;;;;;;;3.53;1.90;;;24.30;58.00;;;;;;5013602;28;20113;-66
2022/10/31 01:15:19;;;;;;;3.15;1.90;;;24.30;58.00;;;;;;5014779;28;20116;-63
2022/10/31 01:17:44;;;;;;;3.38;2.00;;;24.30;58.00;;;;;;5013793;28;20109;-66
2022/10/31 01:20:11;;;;;;;3.55;1.90;;;24.30;58.10;;;;;;5010994;28;20526;-63
2022/10/31 01:22:37;;;;;;;2.90;1.90;;;24.20;58.00;;;;;;5006156;28;20393;-65
2022/10/31 01:25:03;;;;;;;3.70;1.80;;;24.20;58.10;;;;;;5007877;28;20030;-64
2022/10/31 01:27:28;;;;;;;3.03;1.80;;;24.20;58.10;;;;;;5014324;28;20030;-64
2022/10/31 01:29:54;;;;;;;3.28;2.00;;;24.20;58.10;;;;;;5015476;28;20033;-64
2022/10/31 01:32:19;;;;;;;3.78;1.73;;;24.20;58.10;;;;;;5012049;28;20084;-64
2022/10/31 01:34:45;;;;;;;2.95;1.88;;;24.10;58.10;;;;;;5010769;28;20034;-63
2022/10/31 01:37:11;;;;;;;3.67;1.70;;;24.10;58.10;;;;;;5012989;28;20037;-64
2022/10/31 01:39:36;;;;;;;2.90;1.77;;;24.10;58.10;;;;;;5014504;28;20075;-64
2022/10/31 01:42:02;;;;;;;3.35;1.95;;;24.10;58.10;;;;;;5015428;28;20473;-64
2022/10/31 01:44:27;;;;;;;2.95;1.58;;;24.10;58.10;;;;;;5018775;28;20025;-65
2022/10/31 01:46:59;;;;;;;3.28;1.80;;;24.10;58.10;;;;;;5017217;28;20029;-63
2022/10/31 01:49:33;;;;;;;2.70;1.80;;;24.10;58.20;;;;;;5013013;28;20092;-65
2022/10/31 01:52:18;;;;;;;2.70;1.58;;;24.10;58.20;;;;;;5010247;28;20026;-64
2022/10/31 01:55:05;;;;;;;2.88;1.70;;;24.00;58.20;;;;;;5015132;28;20490;-64
2022/10/31 01:57:33;;;;;;;2.60;1.45;;;24.00;58.20;;;;;;5012541;28;20145;-63
2022/10/31 02:00:04;;;;;;;3.30;1.75;;;24.00;58.20;;;;;;5011177;28;20394;-63
2022/10/31 02:02:31;;;;;;;2.35;1.50;;;24.00;58.20;;;;;;5010611;28;20038;-63
2022/10/31 02:04:59;;;;;;;2.83;1.80;;;24.00;58.30;;;;;;5013442;28;20030;-62
2022/10/31 02:07:38;;;;;;;2.83;1.70;;;23.90;58.30;;;;;;5021383;28;20428;-64
2022/10/31 02:10:04;;;;;;;3.13;1.58;;;23.90;58.80;;;;;;5018597;28;20539;-63
2022/10/31 02:12:32;;;;;;;2.40;1.50;;;23.90;58.40;;;;;;5012673;28;20025;-63
2022/10/31 02:14:59;;;;;;;3.08;1.63;;;23.90;58.40;;;;;;5015798;28;20519;-64
2022/10/31 02:17:25;;;;;;;2.92;1.80;;;23.90;58.40;;;;;;5018784;28;20061;-63
2022/10/31 02:20:16;;;;;;;2.70;1.63;;;23.90;58.40;;;;;;5023256;28;20053;-64
2022/10/31 02:23:20;;;;;;;2.80;1.70;;;23.90;58.40;;;;;;5022815;28;20127;-64
2022/10/31 02:26:04;;;;;;;2.85;1.60;;;23.80;58.30;;;;;;5007304;28;20040;-64
2022/10/31 02:28:30;;;;;;;3.25;1.80;;;23.80;58.30;;;;;;5018687;28;20025;-63
2022/10/31 02:31:14;;;;;;;3.05;1.65;;;23.80;58.40;;;;;;5023806;28;20480;-64
2022/10/31 02:33:50;;;;;;;2.42;1.63;;;23.80;58.40;;;;;;5022851;28;20036;-65
2022/10/31 02:36:34;;;;;;;3.25;1.50;;;23.80;58.40;;;;;;5019310;28;20108;-64
2022/10/31 02:39:31;;;;;;;2.40;1.60;;;23.80;58.40;;;;;;5021167;28;20037;-65
2022/10/31 02:42:02;;;;;;;2.80;1.45;;;23.70;58.40;;;;;;5010827;28;20389;-64
2022/10/31 02:44:46;;;;;;;2.85;1.60;;;23.70;58.40;;;;;;5015472;28;20029;-63
2022/10/31 02:47:14;;;;;;;2.95;1.80;;;23.70;58.50;;;;;;5016997;28;20022;-64
2022/10/31 02:50:01;;;;;;;3.13;1.85;;;23.70;58.60;;;;;;5014935;28;20057;-65
2022/10/31 02:52:28;;;;;;;2.70;1.45;;;23.70;58.60;;;;;;5014521;28;20037;-65
2022/10/31 02:54:54;;;;;;;2.70;1.77;;;23.70;58.60;;;;;;5034020;28;20029;-64
2022/10/31 02:57:29;;;;;;;3.50;1.60;;;23.60;58.60;;;;;;5020699;28;20033;-64
2022/10/31 03:00:01;;;;;;;2.45;1.70;;;23.70;58.60;;;;;;5020438;28;20076;-64
2022/10/31 03:02:36;;;;;;;3.08;1.50;;;23.60;58.60;;;;;;5012477;28;20034;-63
2022/10/31 03:05:30;;;;;;;2.90;1.80;;;23.60;58.60;;;;;;5011407;28;20030;-66
2022/10/31 03:08:23;;;;;;;2.60;1.60;;;23.60;58.60;;;;;;5025188;28;20018;-64
2022/10/31 03:11:09;;;;;;;2.85;1.73;;;23.60;58.70;;;;;;5020009;28;20034;-63
2022/10/31 03:13:41;;;;;;;3.50;1.50;;;23.50;58.60;;;;;;5014800;28;20524;-63
2022/10/31 03:16:17;;;;;;;2.67;1.58;;;23.50;58.70;;;;;;5012152;28;20161;-63
2022/10/31 03:19:03;;;;;;;2.50;1.60;;;23.50;58.70;;;;;;5010676;28;20048;-63
2022/10/31 03:21:41;;;;;;;2.47;1.83;;;23.50;58.70;;;;;;5017290;28;20038;-64
2022/10/31 03:24:09;;;;;;;2.95;1.63;;;23.50;58.70;;;;;;5016334;28;20026;-64
2022/10/31 03:26:40;;;;;;;2.50;1.63;;;23.50;58.70;;;;;;5020544;28;20049;-63
2022/10/31 03:29:08;;;;;;;3.00;1.70;;;23.50;58.70;;;;;;5014841;28;20029;-63
2022/10/31 03:31:41;;;;;;;2.78;1.70;;;23.40;58.70;;;;;;5018905;28;20261;-64
2022/10/31 03:34:08;;;;;;;3.05;2.05;;;23.40;58.80;;;;;;5017387;28;20030;-63
2022/10/31 03:36:37;;;;;;;3.08;1.90;;;23.40;58.80;;;;;;5019724;28;20815;-64
2022/10/31 03:39:05;;;;;;;2.22;1.38;;;23.40;58.80;;;;;;5014503;28;20025;-64
2022/10/31 03:41:35;;;;;;;2.80;1.60;;;23.40;58.80;;;;;;5014624;28;20425;-64
2022/10/31 03:44:10;;;;;;;3.53;1.65;;;23.40;58.80;;;;;;5016030;28;20477;-64
2022/10/31 03:46:36;;;;;;;3.50;1.80;;;23.40;58.80;;;;;;5020022;28;20022;-64
2022/10/31 03:49:02;;;;;;;2.70;1.77;;;23.40;58.80;;;;;;5017181;28;20427;-65
2022/10/31 03:52:02;;;;;;;2.47;1.60;;;23.40;58.80;;;;;;5014712;28;20021;-63
2022/10/31 03:54:35;;;;;;;3.08;1.70;;;23.40;58.80;;;;;;5010674;28;20053;-64
2022/10/31 03:57:17;;;;;;;3.00;1.85;;;23.40;58.80;;;;;;5008807;28;20026;-63
2022/10/31 03:59:59;;;;;;;2.67;1.73;;;23.40;58.80;;;;;;5013304;28;20449;-64
2022/10/31 04:02:30;;;;;;;2.58;1.70;;;23.40;58.90;;;;;;5018241;28;20068;-66
2022/10/31 04:04:57;;;;;;;2.88;1.60;;;23.30;59.30;;;;;;5018722;28;20103;-64
2022/10/31 04:07:29;;;;;;;2.72;1.70;;;23.30;58.80;;;;;;5018505;28;20041;-64
2022/10/31 04:09:57;;;;;;;2.22;1.70;;;23.30;58.80;;;;;;5015895;28;20116;-63
2022/10/31 04:12:24;;;;;;;2.30;1.58;;;23.30;58.80;;;;;;5018671;28;20389;-66
2022/10/31 04:14:53;;;;;;;2.58;1.65;;;23.30;58.80;;;;;;5017990;28;20030;-64
2022/10/31 04:17:22;;;;;;;3.42;1.70;;;23.30;58.80;;;;;;5015295;28;20030;-64
2022/10/31 04:19:48;;;;;;;2.63;1.60;;;23.30;58.80;;;;;;5015408;28;20120;-64
2022/10/31 04:22:14;;;;;;;2.40;1.38;;;23.30;58.90;;;;;;5018492;28;20125;-63
2022/10/31 04:24:40;;;;;;;2.38;1.60;;;23.30;58.90;;;;;;5016742;28;20026;-64
2022/10/31 04:27:06;;;;;;;2.58;1.50;;;23.20;58.80;;;;;;5014126;28;20573;-64
2022/10/31 04:29:31;;;;;;;3.25;1.80;;;23.20;58.80;;;;;;5014290;28;20096;-64
2022/10/31 04:31:57;;;;;;;2.50;1.60;;;23.20;58.80;;;;;;5008338;28;20080;-64
2022/10/31 04:34:23;;;;;;;2.22;1.33;;;23.20;58.80;;;;;;5009111;28;20034;-63
2022/10/31 04:36:48;;;;;;;2.53;1.50;;;23.20;58.90;;;;;;5017450;28;20030;-64
2022/10/31 04:39:14;;;;;;;2.28;1.52;;;23.20;58.90;;;;;;5010562;28;20030;-63
2022/10/31 04:41:39;;;;;;;2.95;1.52;;;23.20;58.90;;;;;;5024607;28;20022;-63
2022/10/31 04:44:05;;;;;;;2.70;1.55;;;23.20;58.90;;;;;;5022379;28;20520;-64
2022/10/31 04:46:30;;;;;;;2.42;1.50;;;23.20;58.90;;;;;;5017068;28;20508;-65
2022/10/31 04:48:56;;;;;;;2.65;1.63;;;23.20;58.90;;;;;;5015618;28;20074;-64
2022/10/31 04:51:22;;;;;;;2.33;1.50;;;23.20;59.00;;;;;;5013700;28;20032;-65
2022/10/31 04:53:48;;;;;;;2.13;1.30;;;23.20;59.00;;;;;;5015773;28;20420;-63
2022/10/31 04:56:13;;;;;;;2.17;1.30;;;23.20;58.90;;;;;;5011897;28;20065;-65
2022/10/31 04:58:39;;;;;;;2.15;1.50;;;23.20;58.90;;;;;;5011534;28;20109;-65
2022/10/31 05:01:04;;;;;;;2.38;1.42;;;23.20;58.90;;;;;;5017284;28;20401;-64
2022/10/31 05:03:30;;;;;;;1.83;1.38;;;23.10;58.90;;;;;;5014245;28;20040;-63
2022/10/31 05:05:55;;;;;;;2.45;1.60;;;23.20;58.90;;;;;;5011106;28;20033;-65
2022/10/31 05:08:21;;;;;;;2.15;1.60;;;23.10;58.90;;;;;;5013101;28;20492;-67
2022/10/31 05:10:47;;;;;;;2.15;1.33;;;23.20;58.90;;;;;;5016258;28;20034;-65
2022/10/31 05:13:14;;;;;;;2.22;1.48;;;23.10;58.90;;;;;;5016677;28;20072;-65
2022/10/31 05:15:40;;;;;;;1.80;1.25;;;23.10;59.40;;;;;;5012161;28;20026;-64
2022/10/31 05:18:05;;;;;;;2.25;1.50;;;23.10;58.90;;;;;;5013828;28;20035;-64
2022/10/31 05:20:31;;;;;;;2.20;1.40;;;23.10;58.90;;;;;;5022863;28;20061;-63
2022/10/31 05:22:58;;;;;;;2.13;1.40;;;23.10;58.90;;;;;;5017945;28;20033;-64
2022/10/31 05:25:26;;;;;;;2.78;1.50;;;23.10;58.90;;;;;;5006961;28;20060;-62
2022/10/31 05:27:52;;;;;;;2.38;1.50;;;23.10;58.90;;;;;;5018972;28;20044;-63
2022/10/31 05:30:27;;;;;;;2.10;1.35;;;23.10;58.90;;;;;;5012880;28;20053;-64
2022/10/31 05:32:53;;;;;;;2.70;1.58;;;23.10;58.90;;;;;;5013906;28;20030;-63
2022/10/31 05:35:21;;;;;;;2.20;1.40;;;23.10;59.00;;;;;;5015114;28;20424;-64
2022/10/31 05:37:47;;;;;;;1.90;1.20;;;23.10;58.90;;;;;;5010527;28;20042;-64
2022/10/31 05:40:14;;;;;;;2.30;1.33;;;23.10;59.00;;;;;;5017253;28;20030;-64
2022/10/31 05:42:42;;;;;;;2.13;1.30;;;23.10;58.90;;;;;;5011607;28;20410;-64
2022/10/31 05:45:10;;;;;;;2.20;1.65;;;23.10;59.00;;;;;;5016055;28;20473;-64
2022/10/31 05:47:35;;;;;;;2.47;1.30;;;23.00;58.90;;;;;;5018031;28;20499;-64
2022/10/31 05:50:01;;;;;;;2.05;1.33;;;23.10;59.00;;;;;;5018732;28;20034;-63
2022/10/31 05:52:26;;;;;;;1.88;1.20;;;23.00;58.90;;;;;;5018978;28;20388;-64
2022/10/31 05:54:52;;;;;;;2.17;1.33;;;23.00;58.90;;;;;;5018645;28;20068;-64
2022/10/31 05:57:18;;;;;;;2.35;1.40;;;23.00;58.90;;;;;;5023344;28;20029;-65
2022/10/31 05:59:43;;;;;;;2.03;1.40;;;23.00;59.00;;;;;;5020400;28;20069;-65
2022/10/31 06:02:09;;;;;;;2.00;1.30;;;23.00;59.00;;;;;;5012561;28;20049;-64
2022/10/31 06:04:35;;;;;;;2.03;1.30;;;23.00;59.00;;;;;;5016681;28;20541;-65
2022/10/31 06:07:00;;;;;;;2.28;1.40;;;23.00;59.50;;;;;;5016543;28;20030;-64
2022/10/31 06:09:26;;;;;;;3.00;1.80;;;22.90;59.00;;;;;;5014910;28;20022;-64
2022/10/31 06:11:51;;;;;;;2.00;1.40;;;23.00;59.00;;;;;;5019955;28;20033;-64
2022/10/31 06:14:17;;;;;;;1.90;1.20;;;23.00;59.00;;;;;;5017755;28;20040;-65
2022/10/31 06:16:42;;;;;;;2.33;1.30;;;23.00;59.00;;;;;;5009571;28;20054;-63
2022/10/31 06:19:08;;;;;;;1.90;1.20;;;23.00;59.00;;;;;;5016898;28;20104;-64
2022/10/31 06:21:34;;;;;;;1.50;1.10;;;22.90;58.90;;;;;;5013688;28;20481;-64
2022/10/31 06:23:59;;;;;;;2.35;1.23;;;22.90;58.90;;;;;;5024317;28;20036;-64
2022/10/31 06:26:25;;;;;;;2.20;1.23;;;22.90;58.90;;;;;;5022685;28;20485;-64
2022/10/31 06:28:50;;;;;;;1.80;1.20;;;22.90;58.90;;;;;;5017758;28;20029;-64
2022/10/31 06:31:16;;;;;;;1.70;1.10;;;22.90;58.90;;;;;;5017909;28;20080;-63
2022/10/31 06:33:42;;;;;;;1.80;1.20;;;22.90;58.90;;;;;;5017321;28;20033;-63
2022/10/31 06:36:09;;;;;;;2.15;1.25;;;22.90;58.90;;;;;;5016254;28;20022;-64
2022/10/31 06:38:34;;;;;;;1.58;1.13;;;22.90;59.00;;;;;;5013416;28;20048;-64
2022/10/31 06:41:06;;;;;;;1.92;1.20;;;22.90;59.00;;;;;;5011658;28;20034;-63
2022/10/31 06:43:32;;;;;;;1.60;1.10;;;22.90;59.00;;;;;;5017447;28;20044;-63
2022/10/31 06:46:01;;;;;;;1.90;1.30;;;22.90;59.00;;;;;;5020155;28;20440;-64
2022/10/31 06:48:27;;;;;;;2.85;1.33;;;22.90;59.00;;;;;;5019298;28;20032;-63
2022/10/31 06:50:52;;;;;;;2.10;1.40;;;22.90;59.00;;;;;;5019465;28;20394;-63
2022/10/31 06:53:18;;;;;;;1.70;1.20;;;22.90;59.00;;;;;;5016192;28;20026;-63
2022/10/31 06:55:43;;;;;;;1.23;1.02;;;22.90;59.00;;;;;;5015427;28;20025;-63
2022/10/31 06:58:10;;;;;;;1.80;1.20;;;22.90;59.10;;;;;;5015759;28;20505;-63
2022/10/31 07:00:36;;;;;;;1.80;1.25;;;22.90;59.00;;;;;;5010097;28;20063;-63
2022/10/31 07:03:08;;;;;;;1.73;1.23;;;22.80;58.90;;;;;;5023048;28;20025;-63
2022/10/31 07:05:34;;;;;;;2.10;1.30;;;22.90;59.00;;;;;;5016747;28;20108;-63
2022/10/31 07:08:03;;;;;;;1.50;1.15;;;22.90;59.00;;;;;;5016522;28;20105;-63
2022/10/31 07:10:31;;;;;;;1.42;1.10;;;22.80;58.90;;;;;;5018670;28;20037;-63
2022/10/31 07:12:59;;;;;;;1.88;1.27;;;22.80;58.90;;;;;;5012969;28;20026;-64
2022/10/31 07:15:25;;;;;;;1.60;1.13;;;22.80;59.00;;;;;;5013078;28;20034;-63
2022/10/31 07:17:51;;;;;;;2.40;1.20;;;22.80;58.90;;;;;;5011875;28;20473;-64
2022/10/31 07:20:17;;;;;;;2.15;1.20;;;22.80;59.00;;;;;;5011940;28;20032;-64
2022/10/31 07:22:43;;;;;;;1.55;1.10;;;22.80;58.90;;;;;;5022162;28;20023;-63
2022/10/31 07:25:09;;;;;;;1.40;1.08;;;22.80;58.90;;;;;;5022979;28;20076;-64
2022/10/31 07:27:37;;;;;;;1.73;1.10;;;22.80;58.90;;;;;;5020391;28;20038;-64
2022/10/31 07:30:03;;;;;;;1.70;1.13;;;22.80;58.90;;;;;;5016431;28;20030;-65
2022/10/31 07:32:37;;;;;;;1.85;1.13;;;22.80;58.90;;;;;;5019939;28;20053;-63
2022/10/31 07:35:03;;;;;;;1.50;1.10;;;22.70;59.10;;;;;;5013968;28;20087;-63
2022/10/31 07:37:29;;;;;;;1.60;1.20;;;22.70;58.90;;;;;;5014354;28;20100;-64
2022/10/31 07:39:54;;;;;;;1.60;1.20;;;22.70;58.90;;;;;;5017575;28;20038;-62
2022/10/31 07:42:20;;;;;;;1.80;1.48;;;22.70;59.00;;;;;;5015768;28;20029;-64
2022/10/31 07:44:46;;;;;;;2.35;1.48;;;22.80;59.00;;;;;;5016460;28;20030;-63
2022/10/31 07:47:11;;;;;;;2.10;1.30;;;22.70;59.00;;;;;;5021584;28;20029;-63
2022/10/31 07:49:37;;;;;;;1.60;1.10;;;22.70;59.00;;;;;;5011251;28;20053;-64
2022/10/31 07:52:02;;;;;;;1.77;1.05;;;22.70;59.00;;;;;;5007383;28;20113;-63
2022/10/31 07:54:28;;;;;;;1.60;1.10;;;22.70;58.90;;;;;;5015214;28;20034;-65
2022/10/31 07:56:54;;;;;;;1.80;1.30;;;22.80;59.00;;;;;;5013149;28;20037;-63
2022/10/31 07:59:19;;;;;;;1.80;1.20;;;22.70;58.90;;;;;;5017601;28;20493;-63
2022/10/31 08:01:45;;;;;;;1.50;1.20;;;22.70;58.80;;;;;;5024158;28;20527;-63
2022/10/31 08:04:10;;;;;;;2.13;1.38;;;22.70;58.80;;;;;;5019466;28;20481;-64
2022/10/31 08:06:36;;;;;;;2.20;1.20;;;22.70;58.80;;;;;;5017709;28;20468;-65
2022/10/31 08:09:02;;;;;;;2.15;1.20;;;22.70;59.30;;;;;;5017750;28;20373;-63
2022/10/31 08:11:27;;;;;;;1.27;1.00;;;22.70;58.70;;;;;;5013541;28;20029;-64
2022/10/31 08:13:53;;;;;;;1.58;1.10;;;22.70;58.70;;;;;;5015620;28;20037;-64
2022/10/31 08:16:18;;;;;;;1.90;1.05;;;22.70;58.70;;;;;;5009615;28;20537;-63
2022/10/31 08:18:44;;;;;;;2.08;1.15;;;22.60;58.60;;;;;;5016945;28;20175;-64
2022/10/31 08:21:10;;;;;;;2.13;1.08;;;22.70;58.70;;;;;;5020295;28;20160;-64
2022/10/31 08:23:35;;;;;;;1.92;1.25;;;22.70;58.60;;;;;;5018784;28;20025;-64
2022/10/31 08:26:01;;;;;;;1.25;1.00;;;22.70;58.60;;;;;;5011589;28;20512;-63
2022/10/31 08:28:27;;;;;;;1.95;1.15;;;22.70;58.60;;;;;;5013711;28;20022;-63
2022/10/31 08:30:52;;;;;;;1.40;1.00;;;22.70;58.60;;;;;;5015977;28;20482;-63
2022/10/31 08:33:19;;;;;;;1.65;1.23;;;22.60;58.50;;;;;;5013573;28;20160;-63
2022/10/31 08:35:44;;;;;;;2.53;1.10;;;22.70;58.60;;;;;;5013170;28;20567;-64
2022/10/31 08:38:12;;;;;;;2.47;1.23;;;22.60;58.50;;;;;;5019847;28;20116;-64
2022/10/31 08:40:38;;;;;;;1.77;1.10;;;22.60;58.60;;;;;;5019801;28;20076;-63
2022/10/31 08:43:06;;;;;;;3.03;1.10;;;22.60;58.60;;;;;;5010169;28;20039;-64
2022/10/31 08:45:33;;;;;;;2.00;1.30;;;22.60;58.60;;;;;;5017102;28;20040;-63
2022/10/31 08:48:19;;;;;;;2.00;1.30;;;22.60;58.60;;;;;;5013888;28;20026;-64
2022/10/31 08:50:45;;;;;;;2.05;1.10;;;22.60;58.60;;;;;;5010681;28;20038;-63
2022/10/31 08:53:16;;;;;;;2.03;1.20;;;22.60;58.60;;;;;;5014354;28;20030;-64
2022/10/31 08:55:44;;;;;;;1.70;1.00;;;22.60;58.60;;;;;;5008798;28;20547;-63
2022/10/31 08:58:17;;;;;;;1.35;1.00;;;22.60;58.60;;;;;;5024976;28;20026;-64
2022/10/31 09:00:43;;;;;;;1.38;1.00;;;22.60;58.60;;;;;;5007753;28;20113;-63
2022/10/31 09:03:11;;;;;;;1.48;1.00;;;22.60;58.60;;;;;;5010450;28;20037;-62
2022/10/31 09:05:37;;;;;;;2.00;1.10;;;22.60;58.60;;;;;;5015653;28;20067;-64
2022/10/31 09:08:04;;;;;;;2.60;1.20;;;22.60;58.60;;;;;;5013337;28;20376;-63
2022/10/31 09:10:31;;;;;;;1.75;1.10;;;22.60;58.60;;;;;;5012338;28;20388;-62
2022/10/31 09:12:58;;;;;;;1.42;1.00;;;22.60;58.70;;;;;;5015776;28;20511;-63
2022/10/31 09:15:24;;;;;;;2.97;1.00;;;22.60;58.70;;;;;;5021985;28;20064;-62
2022/10/31 09:17:50;;;;;;;1.65;1.10;;;22.60;58.70;;;;;;5024677;28;20033;-62
2022/10/31 09:20:16;;;;;;;1.73;1.10;;;22.60;58.70;;;;;;5013761;28;20025;-63
2022/10/31 09:22:42;;;;;;;1.67;1.00;;;22.60;58.70;;;;;;5015608;28;20147;-63
2022/10/31 09:25:08;;;;;;;2.10;1.20;;;22.60;58.70;;;;;;5016714;28;20477;-63
2022/10/31 09:27:34;;;;;;;1.80;1.10;;;22.60;58.70;;;;;;5014133;28;20039;-62
2022/10/31 09:29:59;;;;;;;2.33;1.00;;;22.60;58.70;;;;;;5020968;28;20052;-62
2022/10/31 09:32:25;;;;;;;1.63;1.00;;;22.60;58.70;;;;;;5015412;28;20034;-63
2022/10/31 09:34:50;;;;;;;1.90;1.05;;;22.60;58.80;;;;;;5018502;28;20024;-62
2022/10/31 09:37:16;;;;;;;1.50;1.10;;;22.60;58.80;;;;;;5018839;28;20041;-63
2022/10/31 09:39:42;;;;;;;1.60;1.02;;;22.60;58.80;;;;;;5016371;28;20025;-62
2022/10/31 09:42:26;;;;;;;1.13;0.80;;;22.60;58.90;;;;;;5021604;28;20559;-63
2022/10/31 09:45:25;;;;;;;1.83;1.10;;;22.60;58.90;;;;;;5022408;28;20480;-62
2022/10/31 09:48:02;;;;;;;1.23;0.85;;;22.60;58.90;;;;;;5009542;28;20045;-62
2022/10/31 09:50:36;;;;;;;1.80;1.10;;;22.50;58.80;;;;;;5018246;28;20614;-63
2022/10/31 09:53:08;;;;;;;1.42;1.00;;;22.60;58.90;;;;;;5018674;28;20022;-62
2022/10/31 09:55:47;;;;;;;1.50;1.00;;;22.60;58.90;;;;;;5023608;28;20518;-62
2022/10/31 09:58:19;;;;;;;1.48;1.00;;;22.60;58.90;;;;;;5010914;28;20025;-62
2022/10/31 10:00:47;;;;;;;1.70;1.10;;;22.60;58.90;;;;;;5016445;28;20041;-63
2022/10/31 10:03:37;;;;;;;1.40;1.08;;;22.60;59.00;;;;;;5018321;28;20478;-63
2022/10/31 10:06:21;;;;;;;2.92;1.23;;;22.60;59.00;;;;;;5019031;28;20026;-62
2022/10/31 10:08:46;;;;;;;1.35;1.10;;;22.60;59.00;;;;;;5017570;28;20026;-63
2022/10/31 10:11:21;;;;;;;1.67;1.08;;;22.60;59.00;;;;;;5022093;28;20471;-62
2022/10/31 10:13:56;;;;;;;2.17;0.93;;;22.60;59.20;;;;;;5016110;28;20117;-63
2022/10/31 10:16:21;;;;;;;1.42;1.05;;;22.60;59.40;;;;;;5014773;28;20025;-62
2022/10/31 10:19:00;;;;;;;1.75;1.00;;;22.60;59.30;;;;;;5009393;28;20481;-62
2022/10/31 10:21:44;;;;;;;1.60;1.00;;;22.60;59.20;;;;;;5020617;28;20615;-62
2022/10/31 10:24:35;;;;;;;1.38;1.00;;;22.70;59.20;;;;;;5015850;28;20025;-62
2022/10/31 10:27:38;;;;;;;1.67;1.00;;;22.80;59.20;;;;;;5014597;28;20435;-61
2022/10/31 10:30:22;;;;;;;3.03;1.00;;;22.80;59.20;;;;;;5015077;28;20105;-62
2022/10/31 10:32:52;;;;;;;1.55;1.02;;;22.80;59.20;;;;;;5020625;28;20499;-62
2022/10/31 10:35:55;;;;;;;1.75;1.00;;;22.80;59.10;;;;;;5013811;28;20516;-63
2022/10/31 10:38:26;;;;;;;3.25;1.25;;;22.90;59.20;;;;;;4958352;28;20038;-62
2022/10/31 10:40:54;;;;;;;1.70;1.15;;;22.90;59.00;;;;;;5013614;28;20068;-64
2022/10/31 10:43:36;;;;;;;5.43;1.40;;;22.90;59.00;;;;;;5023754;28;20546;-64
2022/10/31 10:49:10;;;;;;;1.67;1.10;;;23.00;59.00;;;;;;5016769;28;20080;-64
2022/10/31 10:51:55;;;;;;;2.15;1.23;;;23.10;59.00;;;;;;5015370;28;20493;-64
2022/10/31 10:54:53;;;;;;;2.67;1.20;;;23.10;58.80;;;;;;5008533;28;20177;-65
2022/10/31 10:57:47;;;;;;;1.83;1.13;;;23.10;58.70;;;;;;5015631;28;20034;-64
2022/10/31 11:00:22;;;;;;;1.90;1.10;;;23.20;58.60;;;;;;5016589;28;20400;-65
2022/10/31 11:02:48;;;;;;;1.55;1.05;;;23.20;58.50;;;;;;5019574;28;20052;-65
2022/10/31 11:05:38;;;;;;;1.80;1.10;;;23.20;58.40;;;;;;5018323;28;20026;-64
2022/10/31 11:08:05;;;;;;;1.80;1.20;;;23.30;58.40;;;;;;5017125;28;20029;-64
2022/10/31 11:10:32;;;;;;;2.50;1.30;;;23.30;58.20;;;;;;5012036;28;20493;-64
2022/10/31 11:13:19;;;;;;;2.40;1.20;;;23.30;58.20;;;;;;5017199;28;20669;-65
2022/10/31 11:16:10;;;;;;;1.75;1.20;;;23.40;58.10;;;;;;5010217;28;20505;-64
2022/10/31 11:18:44;;;;;;;2.30;1.38;;;23.40;58.10;;;;;;5021363;28;20036;-64
2022/10/31 11:21:29;;;;;;;2.33;1.20;;;23.40;58.00;;;;;;5023656;28;20029;-65
2022/10/31 11:24:10;;;;;;;1.98;1.40;;;23.50;58.00;;;;;;5017972;28;20030;-64
2022/10/31 11:26:37;;;;;;;1.80;1.20;;;23.40;57.90;;;;;;5015494;28;20496;-62
2022/10/31 11:29:05;;;;;;;2.47;1.40;;;23.50;58.00;;;;;;5014015;28;20104;-64
2022/10/31 11:31:32;;;;;;;2.75;1.30;;;23.50;58.40;;;;;;5005910;28;20393;-64
2022/10/31 11:34:01;;;;;;;1.98;1.30;;;23.50;57.80;;;;;;5012587;28;20808;-64
2022/10/31 11:36:31;;;;;;;1.70;1.17;;;23.50;57.80;;;;;;5012533;28;20084;-64
2022/10/31 11:38:59;;;;;;;1.75;1.30;;;23.50;57.70;;;;;;5019366;28;20539;-64
2022/10/31 11:41:29;;;;;;;2.20;1.63;;;23.60;57.80;;;;;;5019379;28;20230;-64
2022/10/31 11:44:26;;;;;;;2.70;1.30;;;23.60;57.80;;;;;;5019412;28;20034;-65
2022/10/31 11:46:58;;;;;;;1.50;1.20;;;23.60;57.80;;;;;;5012575;28;20026;-64
2022/10/31 11:49:36;;;;;;;1.80;1.17;;;23.70;57.80;;;;;;5016437;28;20463;-63
2022/10/31 11:52:23;;;;;;;2.10;1.30;;;23.70;57.70;;;;;;5011315;28;20092;-65
2022/10/31 11:54:52;;;;;;;2.25;1.30;;;23.70;57.70;;;;;;5011045;28;20053;-64
2022/10/31 11:57:46;;;;;;;3.55;1.27;;;23.70;57.60;;;;;;5019497;28;20027;-63
2022/10/31 12:00:32;;;;;;;1.95;1.20;;;23.70;57.60;;;;;;5017457;28;20116;-64
2022/10/31 12:03:22;;;;;;;1.80;1.23;;;23.70;57.50;;;;;;5013196;28;20029;-61
2022/10/31 12:06:01;;;;;;;1.90;1.30;;;23.80;57.60;;;;;;5011556;28;20366;-61
2022/10/31 12:08:31;;;;;;;1.58;1.05;;;23.80;57.50;;;;;;5007582;28;20030;-63
2022/10/31 12:11:16;;;;;;;2.38;1.40;;;23.80;57.40;;;;;;5015131;28;20037;-64
2022/10/31 12:13:55;;;;;;;2.60;1.27;;;23.80;57.40;;;;;;5016235;28;20127;-64
2022/10/31 12:16:27;;;;;;;2.15;1.15;;;23.90;57.40;;;;;;5020971;28;20025;-61
2022/10/31 12:19:01;;;;;;;2.72;1.13;;;23.90;57.40;;;;;;5019624;28;20030;-61
2022/10/31 12:22:04;;;;;;;1.95;1.30;;;23.90;57.40;;;;;;5018895;28;20039;-63
2022/10/31 12:25:14;;;;;;;1.88;1.10;;;23.90;57.40;;;;;;5033882;28;20041;-63
2022/10/31 12:27:44;;;;;;;2.47;1.17;;;23.90;57.30;;;;;;5000103;28;20049;-63
2022/10/31 12:30:20;;;;;;;1.85;1.30;;;23.90;57.30;;;;;;5021334;28;20101;-63
2022/10/31 12:33:23;;;;;;;1.58;1.10;;;24.00;57.30;;;;;;5018957;28;20048;-63
2022/10/31 12:36:03;;;;;;;2.70;1.33;;;24.00;57.30;;;;;;5019271;28;20401;-63
2022/10/31 12:38:54;;;;;;;2.78;1.40;;;24.00;57.30;;;;;;5005670;28;20811;-64
2022/10/31 12:41:26;;;;;;;2.15;1.42;;;24.00;57.20;;;;;;5011243;28;20109;-65
2022/10/31 12:44:04;;;;;;;1.85;1.27;;;24.00;57.20;;;;;;5009997;28;20382;-64
2022/10/31 12:47:01;;;;;;;1.67;1.30;;;24.00;57.10;;;;;;5013802;28;20513;-61
2022/10/31 12:50:20;;;;;;;1.58;1.20;;;24.10;57.20;;;;;;5014726;28;20551;-63
2022/10/31 12:52:57;;;;;;;2.47;1.35;;;24.00;57.10;;;;;;4970584;28;20545;-63
2022/10/31 12:55:41;;;;;;;2.10;1.30;;;24.10;57.20;;;;;;5022148;28;20042;-63
2022/10/31 12:58:19;;;;;;;3.35;1.40;;;24.10;57.10;;;;;;5017834;28;20040;-64
2022/10/31 13:00:47;;;;;;;2.30;1.33;;;24.10;57.10;;;;;;5004560;28;20033;-65
2022/10/31 13:03:21;;;;;;;1.60;1.13;;;24.10;57.10;;;;;;5020499;28;20026;-63
2022/10/31 13:05:53;;;;;;;2.38;1.33;;;24.10;57.00;;;;;;5016781;28;20266;-64
2022/10/31 13:08:26;;;;;;;2.20;1.38;;;24.10;57.00;;;;;;5012773;28;20029;-62
2022/10/31 13:11:21;;;;;;;1.85;1.20;;;24.10;57.00;;;;;;5011881;28;20029;-63
2022/10/31 13:14:05;;;;;;;1.65;1.20;;;24.10;57.00;;;;;;5008497;28;20050;-64